createdAt,value
2023-03-18T00:02:13.427Z,8.25
2023-03-18T00:04:41.192Z,8.23
2023-03-18T00:07:08.589Z,7.05
2023-03-18T00:09:36.579Z,9.40
2023-03-18T00:12:04.993Z,7.75
2023-03-18T00:14:33.005Z,9.65
2023-03-18T00:17:00.157Z,6.22
2023-03-18T00:19:27.417Z,6.53
2023-03-18T00:21:55.851Z,7.57
2023-03-18T00:24:22.956Z,8.40
2023-03-18T00:26:50.135Z,6.75
2023-03-18T00:29:17.759Z,7.78
2023-03-18T00:31:46.313Z,6.40
2023-03-18T00:34:14.876Z,7.68
2023-03-18T00:36:41.983Z,6.43
2023-03-18T00:39:09.366Z,7.63
2023-03-18T00:41:38.261Z,12.50
2023-03-18T00:44:06.197Z,9.23
2023-03-18T00:46:38.291Z,8.02
2023-03-18T00:49:08.834Z,7.90
2023-03-18T00:51:37.628Z,8.48
2023-03-18T00:54:07.428Z,6.55
2023-03-18T00:56:37.619Z,11.65
2023-03-18T00:59:06.270Z,7.53
2023-03-18T01:01:33.708Z,7.72
2023-03-18T01:04:02.231Z,7.93
2023-03-18T01:06:32.500Z,7.82
2023-03-18T01:09:01.645Z,9.40
2023-03-18T01:11:29.398Z,8.65
2023-03-18T01:13:57.303Z,11.35
2023-03-18T01:16:24.808Z,9.70
2023-03-18T01:18:53.801Z,7.75
2023-03-18T01:21:21.197Z,8.40
2023-03-18T01:23:48.412Z,7.68
2023-03-18T01:26:15.690Z,7.25
2023-03-18T01:28:43.166Z,7.10
2023-03-18T01:31:10.700Z,7.40
2023-03-18T01:33:37.901Z,9.25
2023-03-18T01:36:05.553Z,6.55
2023-03-18T01:38:33.045Z,10.18
2023-03-18T01:41:01.770Z,6.55
2023-03-18T01:43:35.366Z,7.85
2023-03-18T01:46:24.929Z,7.93
2023-03-18T01:48:52.286Z,7.82
2023-03-18T01:51:20.636Z,7.22
2023-03-18T01:53:49.840Z,9.65
2023-03-18T01:56:18.902Z,7.35
2023-03-18T01:58:51.276Z,9.30
2023-03-18T02:01:32.050Z,18.25
2023-03-18T02:04:02.350Z,18.02
2023-03-18T02:06:29.527Z,21.08
2023-03-18T02:08:57.073Z,9.80
2023-03-18T02:13:51.001Z,11.98
2023-03-18T02:16:28.253Z,7.65
2023-03-18T02:18:59.493Z,8.68
2023-03-18T02:21:55.194Z,6.82
2023-03-18T02:24:49.916Z,7.00
2023-03-18T02:27:17.147Z,7.18
2023-03-18T02:29:44.595Z,7.50
2023-03-18T02:32:12.600Z,8.45
2023-03-18T02:34:40.953Z,8.43
2023-03-18T02:37:08.407Z,4.80
2023-03-18T02:39:35.777Z,6.22
2023-03-18T02:42:03.175Z,6.80
2023-03-18T02:44:30.639Z,7.63
2023-03-18T02:47:06.814Z,5.63
2023-03-18T02:49:33.959Z,8.43
2023-03-18T02:52:01.327Z,6.72
2023-03-18T02:54:30.190Z,6.88
2023-03-18T02:56:57.854Z,7.18
2023-03-18T02:59:25.633Z,6.53
2023-03-18T03:01:55.336Z,7.47
2023-03-18T03:04:25.680Z,8.95
2023-03-18T03:06:54.595Z,5.78
2023-03-18T03:09:22.862Z,5.32
2023-03-18T03:11:50.296Z,7.05
2023-03-18T03:14:18.096Z,6.18
2023-03-18T03:16:45.348Z,7.35
2023-03-18T03:19:13.099Z,6.60
2023-03-18T03:21:40.333Z,7.57
2023-03-18T03:24:08.273Z,5.50
2023-03-18T03:26:36.391Z,8.07
2023-03-18T03:29:05.162Z,7.15
2023-03-18T03:31:32.839Z,5.35
2023-03-18T03:34:00.122Z,5.32
2023-03-18T03:36:27.360Z,6.57
2023-03-18T03:38:54.522Z,6.68
2023-03-18T03:41:21.605Z,6.68
2023-03-18T03:43:49.171Z,7.97
2023-03-18T03:46:16.960Z,8.52
2023-03-18T03:48:44.899Z,7.55
2023-03-18T03:51:12.326Z,5.25
2023-03-18T03:53:39.752Z,7.10
2023-03-18T03:56:09.230Z,6.97
2023-03-18T03:58:36.646Z,6.78
2023-03-18T04:01:06.576Z,5.38
2023-03-18T04:03:34.035Z,8.80
2023-03-18T04:06:01.667Z,6.93
2023-03-18T04:08:29.228Z,6.88
2023-03-18T04:10:57.007Z,5.82
2023-03-18T04:13:24.966Z,5.90
2023-03-18T04:15:52.112Z,5.10
2023-03-18T04:18:19.179Z,6.65
2023-03-18T04:20:46.329Z,5.35
2023-03-18T04:23:14.223Z,6.32
2023-03-18T04:25:41.486Z,5.68
2023-03-18T04:28:08.932Z,5.85
2023-03-18T04:30:36.143Z,6.63
2023-03-18T04:33:03.659Z,7.28
2023-03-18T04:35:30.835Z,7.32
2023-03-18T04:37:57.974Z,9.07
2023-03-18T04:40:25.424Z,8.50
2023-03-18T04:42:53.249Z,7.72
2023-03-18T04:45:20.527Z,7.95
2023-03-18T04:47:47.832Z,5.25
2023-03-18T04:50:15.589Z,6.93
2023-03-18T04:52:44.834Z,4.00
2023-03-18T04:55:16.582Z,6.10
2023-03-18T04:57:44.544Z,4.70
2023-03-18T05:00:17.319Z,6.30
2023-03-18T05:02:45.397Z,5.13
2023-03-18T05:05:12.703Z,5.15
2023-03-18T05:07:39.932Z,5.53
2023-03-18T05:10:07.781Z,7.63
2023-03-18T05:12:35.633Z,5.03
2023-03-18T05:15:03.220Z,7.45
2023-03-18T05:17:30.659Z,5.05
2023-03-18T05:19:58.003Z,5.38
2023-03-18T05:22:25.359Z,7.72
2023-03-18T05:24:52.589Z,7.40
2023-03-18T05:27:20.062Z,5.93
2023-03-18T05:29:47.355Z,6.50
2023-03-18T05:32:15.285Z,4.57
2023-03-18T05:34:43.413Z,6.93
2023-03-18T05:37:12.805Z,5.68
2023-03-18T05:39:40.350Z,8.18
2023-03-18T05:42:07.722Z,5.28
2023-03-18T05:44:35.253Z,4.85
2023-03-18T05:47:02.817Z,6.90
2023-03-18T05:49:29.938Z,5.50
2023-03-18T05:51:57.656Z,5.63
2023-03-18T05:54:25.110Z,4.93
2023-03-18T05:56:52.789Z,5.75
2023-03-18T05:59:22.121Z,4.72
2023-03-18T06:01:49.369Z,4.28
2023-03-18T06:04:19.199Z,7.82
2023-03-18T06:06:46.754Z,8.68
2023-03-18T06:09:15.048Z,4.65
2023-03-18T06:11:42.277Z,5.53
2023-03-18T06:14:09.840Z,5.78
2023-03-18T06:16:37.426Z,6.10
2023-03-18T06:19:05.367Z,6.93
2023-03-18T06:21:33.206Z,6.18
2023-03-18T06:24:01.652Z,7.30
2023-03-18T06:26:29.454Z,5.43
2023-03-18T06:28:58.489Z,7.25
2023-03-18T06:31:26.431Z,7.72
2023-03-18T06:33:53.833Z,7.85
2023-03-18T06:36:21.819Z,7.97
2023-03-18T06:38:49.323Z,5.30
2023-03-18T06:41:16.910Z,7.38
2023-03-18T06:43:44.722Z,7.78
2023-03-18T06:46:14.490Z,5.10
2023-03-18T06:48:41.785Z,6.28
2023-03-18T06:51:08.953Z,7.97
2023-03-18T06:53:36.600Z,5.63
2023-03-18T06:56:04.448Z,5.10
2023-03-18T06:58:32.126Z,7.55
2023-03-18T07:00:59.583Z,8.10
2023-03-18T07:03:28.245Z,7.88
2023-03-18T07:05:56.128Z,6.95
2023-03-18T07:08:23.654Z,7.45
2023-03-18T07:10:57.071Z,7.85
2023-03-18T07:13:25.037Z,6.78
2023-03-18T07:15:52.319Z,8.75
2023-03-18T07:18:19.772Z,6.10
2023-03-18T07:20:46.994Z,7.50
2023-03-18T07:23:14.844Z,4.70
2023-03-18T07:25:42.498Z,7.28
2023-03-18T07:28:10.064Z,9.05
2023-03-18T07:30:39.122Z,6.03
2023-03-18T07:33:06.546Z,6.97
2023-03-18T07:35:34.022Z,5.25
2023-03-18T07:38:01.469Z,4.95
2023-03-18T07:40:28.630Z,9.18
2023-03-18T07:42:55.774Z,5.85
2023-03-18T07:45:22.892Z,7.10
2023-03-18T07:47:50.164Z,3.92
2023-03-18T07:50:17.380Z,6.50
2023-03-18T07:52:44.870Z,5.15
2023-03-18T07:55:12.576Z,3.63
2023-03-18T07:57:39.973Z,4.63
2023-03-18T08:00:08.800Z,4.85
2023-03-18T08:02:36.581Z,3.33
2023-03-18T08:05:04.407Z,5.30
2023-03-18T08:07:31.574Z,5.78
2023-03-18T08:09:58.473Z,5.30
2023-03-18T08:12:26.342Z,4.53
2023-03-18T08:14:53.858Z,5.07
2023-03-18T08:17:21.377Z,4.38
2023-03-18T08:19:49.254Z,5.20
2023-03-18T08:22:16.898Z,4.30
2023-03-18T08:24:45.847Z,3.63
2023-03-18T08:27:13.148Z,5.72
2023-03-18T08:29:40.336Z,5.55
2023-03-18T08:32:07.850Z,4.75
2023-03-18T08:34:35.955Z,3.67
2023-03-18T08:37:03.413Z,5.53
2023-03-18T08:39:30.747Z,3.75
2023-03-18T08:41:57.898Z,5.35
2023-03-18T08:44:24.967Z,4.03
2023-03-18T08:46:52.283Z,5.65
2023-03-18T08:49:19.811Z,5.00
2023-03-18T08:51:47.176Z,3.90
2023-03-18T08:54:15.206Z,3.65
2023-03-18T08:56:42.830Z,3.88
2023-03-18T08:59:10.495Z,6.60
2023-03-18T09:01:38.174Z,2.92
2023-03-18T09:04:05.330Z,4.60
2023-03-18T09:06:32.781Z,4.18
2023-03-18T09:08:59.621Z,3.53
2023-03-18T09:11:26.773Z,3.97
2023-03-18T09:13:53.829Z,5.28
2023-03-18T09:16:20.784Z,3.35
2023-03-18T09:18:48.953Z,3.03
2023-03-18T09:21:15.968Z,5.15
2023-03-18T09:23:43.208Z,3.92
2023-03-18T09:26:10.259Z,3.35
2023-03-18T09:28:37.363Z,3.63
2023-03-18T09:31:06.000Z,4.45
2023-03-18T09:33:33.333Z,4.28
2023-03-18T09:36:00.258Z,3.83
2023-03-18T09:38:27.742Z,3.58
2023-03-18T09:41:09.799Z,3.28
2023-03-18T09:43:53.584Z,3.65
2023-03-18T09:46:38.718Z,2.78
2023-03-18T09:49:24.814Z,4.85
2023-03-18T09:52:11.315Z,5.10
2023-03-18T09:54:47.770Z,8.50
2023-03-18T09:57:33.264Z,5.25
2023-03-18T10:00:27.886Z,3.38
2023-03-18T10:03:14.840Z,3.92
2023-03-18T10:06:02.256Z,3.67
2023-03-18T10:08:49.685Z,5.00
2023-03-18T10:11:22.083Z,2.78
2023-03-18T10:14:08.856Z,4.82
2023-03-18T10:17:04.860Z,6.15
2023-03-18T10:19:33.707Z,3.08
2023-03-18T10:22:08.156Z,2.38
2023-03-18T10:27:17.999Z,3.25
2023-03-18T10:30:04.271Z,4.57
2023-03-18T10:33:02.572Z,3.92
2023-03-18T10:35:33.595Z,2.42
2023-03-18T10:38:18.564Z,5.13
2023-03-18T10:40:47.796Z,3.83
2023-03-18T10:43:32.018Z,3.58
2023-03-18T10:46:10.339Z,4.32
2023-03-18T10:48:43.801Z,2.92
2023-03-18T10:51:34.604Z,5.45
2023-03-18T10:54:34.396Z,4.25
2023-03-18T10:57:01.424Z,4.82
2023-03-18T10:59:30.000Z,4.13
2023-03-18T11:02:05.015Z,4.47
2023-03-18T11:04:42.402Z,4.85
2023-03-18T11:07:18.844Z,2.45
2023-03-18T11:09:46.601Z,4.50
2023-03-18T11:12:29.163Z,2.20
2023-03-18T11:14:56.549Z,4.35
2023-03-18T11:17:33.202Z,4.30
2023-03-18T11:20:22.126Z,3.13
2023-03-18T11:22:52.448Z,4.68
2023-03-18T11:25:26.660Z,3.17
2023-03-18T11:28:02.478Z,4.00
2023-03-18T11:30:35.254Z,4.35
2023-03-18T11:33:12.033Z,2.28
2023-03-18T11:35:55.154Z,2.78
2023-03-18T11:38:28.790Z,3.28
2023-03-18T11:41:11.746Z,2.22
2023-03-18T11:43:39.505Z,2.72
2023-03-18T11:46:11.145Z,3.85
2023-03-18T11:48:44.249Z,3.25
2023-03-18T11:51:42.917Z,4.05
2023-03-18T11:54:47.780Z,2.47
2023-03-18T11:57:40.666Z,2.35
2023-03-18T12:00:19.877Z,3.20
2023-03-18T12:02:59.835Z,2.58
2023-03-18T12:05:30.623Z,4.65
2023-03-18T12:08:15.857Z,3.22
2023-03-18T12:11:06.033Z,2.67
2023-03-18T12:13:44.891Z,3.03
2023-03-18T12:16:25.498Z,3.17
2023-03-18T12:18:55.855Z,3.70
2023-03-18T12:21:40.298Z,5.45
2023-03-18T12:24:27.381Z,2.42
2023-03-18T12:27:07.375Z,2.80
2023-03-18T12:30:03.515Z,2.10
2023-03-18T12:32:58.638Z,2.67
2023-03-18T12:35:37.985Z,2.55
2023-03-18T12:38:18.380Z,2.78
2023-03-18T12:40:51.262Z,3.40
2023-03-18T12:43:39.696Z,4.63
2023-03-18T12:46:40.228Z,4.00
2023-03-18T12:49:22.987Z,2.08
2023-03-18T12:52:13.958Z,2.40
2023-03-18T12:54:49.344Z,1.73
2023-03-18T12:57:24.480Z,2.15
2023-03-18T13:00:18.784Z,1.77
2023-03-18T13:03:14.199Z,1.58
2023-03-18T13:05:52.420Z,2.35
2023-03-18T13:08:28.448Z,4.38
2023-03-18T13:11:05.410Z,2.08
2023-03-18T13:13:37.567Z,3.58
2023-03-18T13:16:06.958Z,1.80
2023-03-18T13:18:42.976Z,4.38
2023-03-18T13:21:15.949Z,3.25
2023-03-18T13:24:14.406Z,1.83
2023-03-18T13:27:05.722Z,2.38
2023-03-18T13:29:45.283Z,4.47
2023-03-18T13:32:49.808Z,7.28
2023-03-18T13:35:20.633Z,1.48
2023-03-18T13:38:06.962Z,2.65
2023-03-18T13:40:34.099Z,2.63
2023-03-18T13:43:02.426Z,3.10
2023-03-18T13:45:34.134Z,1.77
2023-03-18T13:48:07.512Z,1.83
2023-03-18T13:50:38.076Z,2.53
2023-03-18T13:53:15.072Z,2.97
2023-03-18T13:55:54.414Z,2.58
2023-03-18T13:58:33.704Z,2.55
2023-03-18T14:01:01.110Z,4.72
2023-03-18T14:03:33.254Z,2.50
2023-03-18T14:06:10.324Z,3.15
2023-03-18T14:08:43.241Z,2.30
2023-03-18T14:11:26.186Z,2.25
2023-03-18T14:14:06.183Z,3.83
2023-03-18T14:16:37.810Z,2.28
2023-03-18T14:19:19.310Z,3.38
2023-03-18T14:21:53.340Z,2.70
2023-03-18T14:24:23.171Z,3.42
2023-03-18T14:27:04.648Z,2.08
2023-03-18T14:29:37.519Z,2.28
2023-03-18T14:32:08.557Z,3.10
2023-03-18T14:34:58.853Z,4.68
2023-03-18T14:37:30.206Z,1.58
2023-03-18T14:40:06.227Z,4.45
2023-03-18T14:42:56.643Z,2.83
2023-03-18T14:45:44.965Z,2.92
2023-03-18T14:48:29.330Z,2.55
2023-03-18T14:51:00.385Z,3.42
2023-03-18T14:53:41.972Z,2.72
2023-03-18T14:56:30.308Z,2.83
2023-03-18T14:58:57.765Z,3.75
2023-03-18T15:01:34.003Z,7.43
2023-03-18T15:04:02.540Z,3.58
2023-03-18T15:06:30.171Z,5.38
2023-03-18T15:09:06.048Z,4.65
2023-03-18T15:11:41.592Z,3.17
2023-03-18T15:14:13.353Z,4.22
2023-03-18T15:16:40.423Z,4.25
2023-03-18T15:19:11.748Z,5.55
2023-03-18T15:21:38.903Z,4.38
2023-03-18T15:24:08.003Z,3.92
2023-03-18T15:26:40.340Z,4.57
2023-03-18T15:29:24.106Z,3.45
2023-03-18T15:31:52.959Z,2.17
2023-03-18T15:34:21.679Z,5.93
2023-03-18T15:36:57.740Z,4.95
2023-03-18T15:39:40.925Z,8.45
2023-03-18T15:42:17.333Z,4.15
2023-03-18T15:44:46.620Z,10.32
2023-03-18T15:47:17.680Z,3.60
2023-03-18T15:50:13.510Z,2.90
2023-03-18T15:52:42.992Z,3.42
2023-03-18T15:55:35.626Z,1.83
2023-03-18T15:58:05.637Z,4.28
2023-03-18T16:00:34.289Z,3.47
2023-03-18T16:03:01.879Z,3.90
2023-03-18T16:05:29.708Z,3.83
2023-03-18T16:07:57.590Z,4.07
2023-03-18T16:10:26.504Z,5.75
2023-03-18T16:12:58.427Z,4.07
2023-03-18T16:15:28.001Z,7.18
2023-03-18T16:17:56.423Z,5.30
2023-03-18T16:20:28.977Z,3.40
2023-03-18T16:22:58.347Z,3.65
2023-03-18T16:25:26.543Z,4.63
2023-03-18T16:27:59.814Z,4.20
2023-03-18T16:30:30.038Z,3.50
2023-03-18T16:32:58.418Z,5.22
2023-03-18T16:35:30.795Z,3.40
2023-03-18T16:37:59.333Z,3.92
2023-03-18T16:40:28.518Z,4.28
2023-03-18T16:42:56.123Z,7.18
2023-03-18T16:45:31.072Z,5.53
2023-03-18T16:48:07.841Z,5.00
2023-03-18T16:50:39.102Z,7.57
2023-03-18T16:53:17.447Z,19.63
2023-03-18T16:55:49.717Z,8.15
2023-03-18T16:58:22.282Z,11.70
2023-03-18T17:00:49.740Z,8.15
2023-03-18T17:03:18.328Z,6.57
2023-03-18T17:05:50.257Z,6.40
2023-03-18T17:08:18.351Z,7.47
2023-03-18T17:10:46.807Z,5.15
2023-03-18T17:13:23.920Z,4.90
2023-03-18T17:15:51.865Z,6.75
2023-03-18T17:18:21.760Z,4.50
2023-03-18T17:20:49.518Z,4.13
2023-03-18T17:23:26.656Z,5.32
2023-03-18T17:25:55.387Z,4.97
2023-03-18T17:28:27.738Z,4.50
2023-03-18T17:30:55.021Z,4.75
2023-03-18T17:33:29.442Z,6.32
2023-03-18T17:38:24.322Z,5.43
2023-03-18T17:40:51.405Z,9.25
2023-03-18T17:43:30.577Z,4.97
2023-03-18T17:45:59.229Z,6.85
2023-03-18T17:48:28.829Z,9.77
2023-03-18T17:51:01.703Z,6.25
2023-03-18T17:53:41.395Z,5.63
2023-03-18T17:56:11.709Z,4.55
2023-03-18T17:58:39.548Z,5.43
2023-03-18T18:01:12.280Z,6.20
2023-03-18T18:03:40.399Z,7.25
2023-03-18T18:06:11.843Z,12.52
2023-03-18T18:08:40.226Z,12.15
2023-03-18T18:11:24.492Z,5.78
2023-03-18T18:14:02.178Z,3.35
2023-03-18T18:16:29.322Z,6.38
2023-03-18T18:18:56.258Z,4.57
2023-03-18T18:21:24.482Z,7.20
2023-03-18T18:23:52.404Z,7.30
2023-03-18T18:26:22.020Z,7.15
2023-03-18T18:28:51.299Z,6.85
2023-03-18T18:31:19.971Z,6.55
2023-03-18T18:33:50.062Z,5.43
2023-03-18T18:36:17.995Z,7.13
2023-03-18T18:38:45.077Z,6.00
2023-03-18T18:41:12.169Z,7.57
2023-03-18T18:43:39.132Z,6.95
2023-03-18T18:46:14.832Z,11.68
2023-03-18T18:48:43.881Z,7.43
2023-03-18T18:51:17.500Z,9.95
2023-03-18T18:53:45.428Z,7.90
2023-03-18T18:56:29.093Z,9.60
2023-03-18T18:58:56.641Z,5.97
2023-03-18T19:01:23.900Z,4.80
2023-03-18T19:03:51.333Z,6.30
2023-03-18T19:06:29.129Z,7.47
2023-03-18T19:08:58.756Z,6.85
2023-03-18T19:11:27.599Z,4.55
2023-03-18T19:13:55.331Z,6.50
2023-03-18T19:16:32.661Z,7.53
2023-03-18T19:19:00.322Z,8.82
2023-03-18T19:21:27.336Z,7.70
2023-03-18T19:23:54.768Z,10.15
2023-03-18T19:26:22.019Z,8.10
2023-03-18T19:28:57.750Z,7.82
2023-03-18T19:31:30.918Z,7.55
2023-03-18T19:34:00.198Z,9.05
2023-03-18T19:36:39.952Z,13.57
2023-03-18T19:39:17.980Z,12.20
2023-03-18T19:41:49.605Z,8.23
2023-03-18T19:44:24.939Z,7.47
2023-03-18T19:46:56.412Z,8.07
2023-03-18T19:49:28.413Z,11.60
2023-03-18T19:51:56.126Z,9.55
2023-03-18T19:54:32.970Z,6.20
2023-03-18T19:57:03.684Z,8.05
2023-03-18T19:59:38.238Z,7.75
2023-03-18T20:02:35.962Z,6.55
2023-03-18T20:05:15.608Z,6.93
2023-03-18T20:07:42.744Z,11.32
2023-03-18T20:10:11.894Z,7.93
2023-03-18T20:12:42.005Z,7.65
2023-03-18T20:15:20.855Z,5.30
2023-03-18T20:17:49.863Z,7.32
2023-03-18T20:20:20.252Z,7.70
2023-03-18T20:22:53.127Z,8.63
2023-03-18T20:25:28.935Z,6.32
2023-03-18T20:27:57.866Z,12.35
2023-03-18T20:30:27.961Z,9.85
2023-03-18T20:32:55.613Z,7.03
2023-03-18T20:35:27.340Z,7.97
2023-03-18T20:37:56.165Z,7.72
2023-03-18T20:40:29.402Z,8.18
2023-03-18T20:42:56.990Z,7.75
2023-03-18T20:45:24.996Z,10.55
2023-03-18T20:47:52.470Z,7.72
2023-03-18T20:50:22.806Z,9.43
2023-03-18T20:52:50.709Z,10.82
2023-03-18T20:55:27.111Z,11.05
2023-03-18T20:57:54.421Z,12.27
2023-03-18T21:00:26.934Z,9.95
2023-03-18T21:02:57.537Z,8.60
2023-03-18T21:05:28.201Z,8.15
2023-03-18T21:07:55.899Z,12.95
2023-03-18T21:10:27.352Z,13.50
2023-03-18T21:12:54.516Z,15.20
2023-03-18T21:15:27.224Z,13.20
2023-03-18T21:17:55.124Z,12.30
2023-03-18T21:20:27.227Z,11.52
2023-03-18T21:22:54.737Z,9.63
2023-03-18T21:25:26.812Z,8.85
2023-03-18T21:27:54.262Z,6.90
2023-03-18T21:30:22.659Z,6.28
2023-03-18T21:32:53.110Z,6.25
2023-03-18T21:35:25.108Z,11.18
2023-03-18T21:37:52.826Z,8.88
2023-03-18T21:40:22.513Z,9.98
2023-03-18T21:42:50.833Z,12.13
2023-03-18T21:45:23.035Z,9.63
2023-03-18T21:47:52.562Z,8.05
2023-03-18T21:50:25.281Z,9.98
2023-03-18T21:52:54.372Z,13.15
2023-03-18T21:55:22.316Z,11.73
2023-03-18T21:57:49.722Z,11.07
2023-03-18T22:00:21.187Z,10.73
2023-03-18T22:02:49.148Z,9.50
2023-03-18T22:05:21.885Z,8.30
2023-03-18T22:07:50.590Z,14.32
2023-03-18T22:10:23.322Z,12.90
2023-03-18T22:12:51.146Z,9.18
2023-03-18T22:15:28.019Z,13.63
2023-03-18T22:17:55.491Z,10.57
2023-03-18T22:20:23.602Z,8.88
2023-03-18T22:22:51.463Z,11.73
2023-03-18T22:25:37.137Z,9.52
2023-03-18T22:28:05.240Z,8.63
2023-03-18T22:30:34.199Z,8.20
2023-03-18T22:33:03.981Z,11.32
2023-03-18T22:35:31.499Z,7.20
2023-03-18T22:37:58.797Z,12.30
2023-03-18T22:40:31.432Z,8.75
2023-03-18T22:43:01.103Z,9.57
2023-03-18T22:45:33.785Z,9.18
2023-03-18T22:48:04.846Z,8.88
2023-03-18T22:50:34.759Z,8.32
2023-03-18T22:53:05.602Z,12.85
2023-03-18T22:55:38.884Z,11.20
2023-03-18T22:58:06.867Z,9.02
2023-03-18T23:00:42.394Z,10.70
2023-03-18T23:03:18.560Z,10.20
2023-03-18T23:05:48.121Z,8.32
2023-03-18T23:08:16.183Z,8.30
2023-03-18T23:10:44.218Z,8.73
2023-03-18T23:13:13.332Z,9.60
2023-03-18T23:15:40.692Z,8.75
2023-03-18T23:18:16.026Z,8.38
2023-03-18T23:20:45.349Z,9.77
2023-03-18T23:23:13.648Z,9.95
2023-03-18T23:25:42.081Z,9.98
2023-03-18T23:28:09.509Z,8.43
2023-03-18T23:30:39.076Z,9.27
2023-03-18T23:33:07.372Z,7.82
2023-03-18T23:35:34.881Z,12.05
2023-03-18T23:38:02.346Z,9.32
2023-03-18T23:40:29.566Z,9.40
2023-03-18T23:42:56.676Z,7.95
2023-03-18T23:45:24.971Z,8.75
2023-03-18T23:47:52.200Z,9.30
2023-03-18T23:50:19.496Z,10.63
2023-03-18T23:52:46.880Z,8.52
2023-03-18T23:55:32.674Z,10.00
2023-03-18T23:58:00.680Z,12.38
